Terminal Aerodrome Forecast
Issued by NWS Wilmington, OH

Home | Current Version | Previous Version | Text Only | Print | Product List | Glossary On
Versions: 1 2 3 4 5 6 7 8 9 10 11 12 13 14 15 16 17 18 19 20 21 22 23 24 25 26 27 28
000
FTUS41 KILN 200500 RRA
TAFILN
TAF
KILN 200543Z 2006/2106 20005KT P6SM VCTS SCT040CB OVC120
     FM200700 27010G20KT 2SM +TSRA BR OVC020CB
     FM200800 27008KT 4SM BR VCTS BKN025 BKN040CB
     FM201000 21003KT 2SM BR SCT012
     FM201400 26007KT P6SM SCT025
     FM201700 28012G20KT P6SM SCT040
     FM210000 27007KT P6SM SCT100 BKN250=

USA.gov is the U.S. government's official web portal to all federal, state and local government web resources and services.